ブエノスアイレス/エセイサ の空港の天気 - METARとTAF

エセイサ国際空港 ( SAEZ / EZE ) - アルゼンチン ブエノスアイレス州、Ezeiza
飛行場実況気象(Metar)
観測時間09/24 20:00 ART (09/24 23:00 UTC)
風向・風速東 5m/s
視程10km以上
天気現象
なし
気温14℃
湿度72%
気圧1023hPa
METARSAEZ 242300Z 08009KT CAVOK 14/09 Q1023 NOSIG
過去の天気等 Google飛行場航空写真 Wunderground天気予報

過去48時間のMETAR

飛行場予報(TAF)
発表時間: 9/24 20:00 ART (9/24 23:00 UTC)
予報対象時間: 24日21時 ART ~ 25日21時 ART
風向・風速東 4m/s
視程10km以上
なし
25日0時 ART ~ 25日2時 ART に徐々に
風向・風速東 3m/s
視程3000m
天気現象もや
24日4時 ART ~ 24日8時 ART に 確率 30% で一時的に
視程500m
天気現象
25日10時 ART ~ 25日12時 ART に徐々に
風向・風速北東 5m/s
視程10km以上
なし
TAF SAEZ 242300Z 2500/2524 08008KT CAVOK TX22/2518Z TN09/2509Z
BECMG 2503/2505 08005KT 3000 BR
PROB30 TEMPO 2407/2411 0500 FG
BECMG 2513/2515 05010KT CAVOK